S 386 Casilo — OZZP — position and weather

sailwx.info

Track history (hours):
 
Tides and Currents Weather Stations Pressure Air Temp Water Temp Dewpoint Dewpoint Depression Visibility Wind Speed Wind Dir Waves Ship Positions

S 386 Casilo

Last reported at 2014-Nov-24 03:33 UTC. Time now 2014-Nov-24 03:51 UTC.
Position N 58°21' E 011°14'.

Length 24 m.

Type: Fishing. MMSI: 219948000.

Date/timePositionNaut miles runAvg speedWind from/ knotsBaromVisibWave heightAir tempDewpointWater temp
2014-Nov-24 03:33N 58°21' E 011°14'0 0.0
2014-Nov-24 02:33N 58°21' E 011°14'3 3.3
2014-Nov-24 01:33N 58°19' E 011°09'7 7.1
2014-Nov-24 00:33N 58°17' E 010°56'8 8.0
2014-Nov-23 23:33N 58°15' E 010°41'8 8.4
2014-Nov-23 22:33N 58°12' E 010°26'  
2014-Nov-20 10:14N 57°55' E 010°50'6 9.3
2014-Nov-20 09:33N 58°01' E 010°55'9 9.3
2014-Nov-20 08:33N 58°09' E 011°03'9 9.3
2014-Nov-20 07:33N 58°17' E 011°11'4 3.9
2014-Nov-20 06:32N 58°21' E 011°14'0 0.0
2014-Nov-20 05:32N 58°21' E 011°14'5 4.9
2014-Nov-20 04:33N 58°19' E 011°06'8 8.2
2014-Nov-20 03:33N 58°16' E 010°51'8 8.5
2014-Nov-20 02:33N 58°15' E 010°35'9 8.9
2014-Nov-20 01:33N 58°13' E 010°19'  
2014-Nov-17 10:30N 58°11' E 010°21'8 8.9
2014-Nov-17 09:34N 58°14' E 010°36'9 9.0
2014-Nov-17 08:34N 58°17' E 010°52'9 9.3
2014-Nov-17 07:33N 58°20' E 011°09'3 2.6
2014-Nov-17 06:32N 58°21' E 011°14'0 0.0
2014-Nov-17 05:32N 58°21' E 011°14'7 7.1
2014-Nov-17 04:33N 58°24' E 011°02'9 8.7
2014-Nov-17 03:33N 58°30' E 010°49'8 7.7
2014-Nov-17 02:33N 58°35' E 010°38'7 6.9
2014-Nov-17 01:33N 58°39' E 010°27'4 0.3
2014-Nov-16 11:33N 58°36' E 010°32'1 0.1
2014-Nov-16 00:18N 58°35' E 010°31'3 3.7
2014-Nov-15 23:33N 58°33' E 010°33'1010.5
2014-Nov-15 22:33N 58°22' E 010°37'10 9.8
2014-Nov-15 21:33N 58°13' E 010°39'9 9.1
2014-Nov-15 20:33N 58°04' E 010°41'9 9.4
2014-Nov-15 19:33N 57°54' E 010°42'12 1.7
2014-Nov-15 12:32N 58°03' E 010°26'8 8.2
2014-Nov-15 11:33N 58°11' E 010°23'25 1.9
2014-Nov-14 22:33N 58°35' E 010°30'3 3.3
2014-Nov-14 21:33N 58°33' E 010°33'1010.0
2014-Nov-14 20:33N 58°23' E 010°39'9 9.2
2014-Nov-14 19:33N 58°14' E 010°42'9 8.7
2014-Nov-14 18:33N 58°05' E 010°44'9 9.3
2014-Nov-14 17:33N 57°56' E 010°44'  
Track history (hours):
 
Tides and Currents Weather Stations Pressure Air Temp Water Temp Dewpoint Dewpoint Depression Visibility Wind Speed Wind Dir Waves Ship Positions

S 386 Casilo

Last reported at 2014-Nov-24 03:33 UTC. Time now 2014-Nov-24 03:51 UTC.
Position N 58°21' E 011°14'.

Length 24 m.

Type: Fishing. MMSI: 219948000.

Date/timePositionNaut miles runAvg speedWind from/ knotsBaromVisibWave heightAir tempDewpointWater temp
2014-Nov-24 03:33N 58°21' E 011°14'0 0.0
2014-Nov-24 02:33N 58°21' E 011°14'3 3.3
2014-Nov-24 01:33N 58°19' E 011°09'7 7.1
2014-Nov-24 00:33N 58°17' E 010°56'8 8.0
2014-Nov-23 23:33N 58°15' E 010°41'8 8.4
2014-Nov-23 22:33N 58°12' E 010°26'  
2014-Nov-20 10:14N 57°55' E 010°50'6 9.3
2014-Nov-20 09:33N 58°01' E 010°55'9 9.3
2014-Nov-20 08:33N 58°09' E 011°03'9 9.3
2014-Nov-20 07:33N 58°17' E 011°11'4 3.9
2014-Nov-20 06:32N 58°21' E 011°14'0 0.0
2014-Nov-20 05:32N 58°21' E 011°14'5 4.9
2014-Nov-20 04:33N 58°19' E 011°06'8 8.2
2014-Nov-20 03:33N 58°16' E 010°51'8 8.5
2014-Nov-20 02:33N 58°15' E 010°35'9 8.9
2014-Nov-20 01:33N 58°13' E 010°19'  
2014-Nov-17 10:30N 58°11' E 010°21'8 8.9
2014-Nov-17 09:34N 58°14' E 010°36'9 9.0
2014-Nov-17 08:34N 58°17' E 010°52'9 9.3
2014-Nov-17 07:33N 58°20' E 011°09'3 2.6
2014-Nov-17 06:32N 58°21' E 011°14'0 0.0
2014-Nov-17 05:32N 58°21' E 011°14'7 7.1
2014-Nov-17 04:33N 58°24' E 011°02'9 8.7
2014-Nov-17 03:33N 58°30' E 010°49'8 7.7
2014-Nov-17 02:33N 58°35' E 010°38'7 6.9
2014-Nov-17 01:33N 58°39' E 010°27'4 0.3
2014-Nov-16 11:33N 58°36' E 010°32'1 0.1
2014-Nov-16 00:18N 58°35' E 010°31'3 3.7
2014-Nov-15 23:33N 58°33' E 010°33'1010.5
2014-Nov-15 22:33N 58°22' E 010°37'10 9.8
2014-Nov-15 21:33N 58°13' E 010°39'9 9.1
2014-Nov-15 20:33N 58°04' E 010°41'9 9.4
2014-Nov-15 19:33N 57°54' E 010°42'12 1.7
2014-Nov-15 12:32N 58°03' E 010°26'8 8.2
2014-Nov-15 11:33N 58°11' E 010°23'25 1.9
2014-Nov-14 22:33N 58°35' E 010°30'3 3.3
2014-Nov-14 21:33N 58°33' E 010°33'1010.0
2014-Nov-14 20:33N 58°23' E 010°39'9 9.2
2014-Nov-14 19:33N 58°14' E 010°42'9 8.7
2014-Nov-14 18:33N 58°05' E 010°44'9 9.3
2014-Nov-14 17:33N 57°56' E 010°44'  

Dump ship's entire track history